Whiteman Air Force Base Knob noster US
ICAO: KSZL
IATA: SZL
Category: Large
Scheduled Services: No

Elevation: 870 ft
TransAlt. 18000 ft.

Airport Communications:
ARNG HAWK OPS:49.65
APP:127.45
ATIS:139.3
CLNC DEL:121.75
DEP:125.925
GND:128.275
303 TFS OPS:22.78
PMSV METRO:34.46
COMD POST:31.1
PTD:118.725
TWR:132.4

KSZL Zoom In..

Runways:

(A) RW 01 length 12400 ft width 200 ft
ILS 110.30 / hdg 7

(B) RW 19 length 12400 ft width 200 ft
ILS 108.50 / hdg 187

Location; KSZL
Day. 22 / Time. 03.56 Zulu
* Altimeter: 29.57
* Temperature: 14° c. 57.2°f.
* Wind from: 160° Speed 10 kn.
Dewpoint: 13° c.
Visibility: 10 Statute Miles.
Clouds: Few 3900 ft.
Clouds: Few 4700 ft.

KSZL 220356Z AUTO 16010KT 10SM FEW039 FEW047 14/13 A2957 RMK AO2 RAE11DZB11E17RAB17E27 SLP014 P0001 T01420132 $


Wind From 160°
Speed 10 kn.

jpsM music video
CHECK IT OUT

jpsM - It Moves..

 
jpsmedia.com for Web Design  worldairports.se 2018   terms of use